createdAt,value
2022-11-03T00:00:55.724Z,101795.03
2022-11-03T00:04:57.176Z,101799.53
2022-11-03T00:09:00.450Z,101791.78
2022-11-03T00:13:01.918Z,101782.16
2022-11-03T00:17:03.439Z,101781.09
2022-11-03T00:21:08.071Z,101778.59
2022-11-03T00:25:09.645Z,101774.88
2022-11-03T00:29:13.537Z,101773.13
2022-11-03T00:33:15.004Z,101775.75
2022-11-03T00:37:16.496Z,101776.19
2022-11-03T00:41:20.769Z,101783.22
2022-11-03T00:45:22.223Z,101776.78
2022-11-03T00:49:23.715Z,101778.63
2022-11-03T00:53:25.163Z,101772.44
2022-11-03T00:57:26.746Z,101770.75
2022-11-03T01:01:36.257Z,101768.28
2022-11-03T01:06:00.591Z,101774.19
2022-11-03T01:10:02.159Z,101764.47
2022-11-03T01:14:05.051Z,101769.47
2022-11-03T01:18:06.540Z,101760.06
2022-11-03T01:22:10.879Z,101744.97
2022-11-03T01:26:13.783Z,101746.03
2022-11-03T01:30:15.244Z,101750.16
2022-11-03T01:34:19.229Z,101739.84
2022-11-03T01:38:20.665Z,101734.25
2022-11-03T01:42:22.118Z,101724.66
2022-11-03T01:46:26.027Z,101718.75
2022-11-03T01:50:27.661Z,101707.97
2022-11-03T01:54:30.968Z,101703.44
2022-11-03T01:58:37.087Z,101687.66
2022-11-03T02:02:38.549Z,101688.47
2022-11-03T02:06:40.803Z,101685.03
2022-11-03T02:10:42.635Z,101671.84
2022-11-03T02:14:51.786Z,101663.97
2022-11-03T02:18:55.666Z,101651.56
2022-11-03T02:23:14.739Z,101648.84
2022-11-03T02:27:16.284Z,101647.97
2022-11-03T02:31:26.414Z,101648.91
2022-11-03T02:35:41.598Z,101643.47
2022-11-03T02:39:51.767Z,101649.66
2022-11-03T02:43:55.653Z,101642.50
2022-11-03T02:48:00.381Z,101641.59
2022-11-03T02:52:06.768Z,101650.34
2022-11-03T02:56:15.283Z,101642.38
2022-11-03T03:00:17.740Z,101644.09
2022-11-03T03:04:43.379Z,101640.31
2022-11-03T03:08:51.209Z,101643.06
2022-11-03T03:12:56.200Z,101638.47
2022-11-03T03:17:16.155Z,101643.81
2022-11-03T03:21:22.787Z,101647.44
2022-11-03T03:25:32.705Z,101634.41
2022-11-03T03:29:47.409Z,101630.94
2022-11-03T03:33:59.669Z,101624.78
2022-11-03T03:38:13.321Z,101632.81
2022-11-03T03:42:16.225Z,101620.19
2022-11-03T03:46:20.763Z,101620.91
2022-11-03T03:50:24.947Z,101606.91
2022-11-03T03:54:26.444Z,101607.72
2022-11-03T03:58:27.982Z,101607.09
2022-11-03T04:02:29.526Z,101599.06
2022-11-03T04:06:31.259Z,101597.38
2022-11-03T04:10:32.773Z,101577.22
2022-11-03T04:14:53.073Z,101569.31
2022-11-03T04:19:13.286Z,101565.97
2022-11-03T04:23:14.939Z,101568.41
2022-11-03T04:27:30.275Z,101579.97
2022-11-03T04:31:35.210Z,101588.84
2022-11-03T04:35:36.710Z,101576.63
2022-11-03T04:39:38.286Z,101584.53
2022-11-03T04:43:39.770Z,101580.22
2022-11-03T04:47:41.340Z,101574.00
2022-11-03T04:51:42.929Z,101566.19
2022-11-03T04:55:46.090Z,101569.72
2022-11-03T04:59:50.559Z,101567.75
2022-11-03T05:03:54.444Z,101571.44
2022-11-03T05:07:58.946Z,101559.81
2022-11-03T05:12:00.749Z,101561.88
2022-11-03T05:16:05.848Z,101546.66
2022-11-03T05:20:34.702Z,101536.25
2022-11-03T05:24:37.509Z,101526.38
2022-11-03T05:28:42.811Z,101521.94
2022-11-03T05:32:44.242Z,101507.84
2022-11-03T05:36:47.646Z,101504.38
2022-11-03T05:40:56.509Z,101504.31
2022-11-03T05:45:03.411Z,101501.66
2022-11-03T05:49:07.009Z,101507.88
2022-11-03T05:53:38.502Z,101505.03
2022-11-03T05:57:40.051Z,101491.88
2022-11-03T06:02:36.156Z,101488.34
2022-11-03T06:06:38.897Z,101481.03
2022-11-03T06:10:48.580Z,101485.59
2022-11-03T06:14:51.343Z,101486.44
2022-11-03T06:18:52.836Z,101475.84
2022-11-03T06:22:56.983Z,101490.06
2022-11-03T06:26:58.719Z,101472.31
2022-11-03T06:31:00.472Z,101469.75
2022-11-03T06:35:02.027Z,101469.75
2022-11-03T06:39:13.526Z,101469.63
2022-11-03T06:43:19.670Z,101471.50
2022-11-03T06:47:26.351Z,101468.88
2022-11-03T06:51:29.751Z,101467.16
2022-11-03T06:55:32.952Z,101468.06
2022-11-03T06:59:34.546Z,101461.09
2022-11-03T07:03:37.985Z,101458.41
2022-11-03T07:07:39.593Z,101447.84
2022-11-03T07:11:47.835Z,101455.81
2022-11-03T07:15:50.189Z,101451.44
2022-11-03T07:19:52.166Z,101449.66
2022-11-03T07:23:53.638Z,101449.63
2022-11-03T07:27:57.305Z,101446.97
2022-11-03T07:32:00.362Z,101449.69
2022-11-03T07:36:18.941Z,101453.19
2022-11-03T07:40:25.725Z,101444.38
2022-11-03T07:44:28.313Z,101448.84
2022-11-03T07:48:36.045Z,101438.22
2022-11-03T07:52:37.693Z,101430.28
2022-11-03T07:56:44.144Z,101422.28
2022-11-03T08:00:45.878Z,101418.78
2022-11-03T08:04:47.464Z,101425.81
2022-11-03T08:08:48.922Z,101422.06
2022-11-03T08:12:50.545Z,101408.03
2022-11-03T08:16:52.016Z,101410.63
2022-11-03T08:20:53.488Z,101405.31
2022-11-03T08:24:54.906Z,101402.66
2022-11-03T08:28:56.379Z,101388.31
2022-11-03T08:32:57.881Z,101381.25
2022-11-03T08:36:59.421Z,101381.03
2022-11-03T08:41:01.855Z,101378.56
2022-11-03T08:45:03.681Z,101392.47
2022-11-03T08:49:05.131Z,101384.38
2022-11-03T08:53:06.702Z,101371.13
2022-11-03T08:57:08.207Z,101379.06
2022-11-03T09:01:09.780Z,101368.38
2022-11-03T09:05:12.768Z,101364.00
2022-11-03T09:13:36.037Z,101345.94
2022-11-03T09:17:39.493Z,101342.13
2022-11-03T09:21:43.365Z,101343.28
2022-11-03T09:25:44.899Z,101330.00
2022-11-03T09:30:11.501Z,101322.19
2022-11-03T09:34:07.971Z,101311.41
2022-11-03T09:38:09.896Z,101318.38
2022-11-03T09:42:12.674Z,101319.28
2022-11-03T09:46:16.820Z,101306.44
2022-11-03T09:50:20.317Z,101312.88
2022-11-03T09:54:21.958Z,101296.66
2022-11-03T09:58:23.441Z,101293.66
2022-11-03T10:02:28.262Z,101296.63
2022-11-03T10:06:29.875Z,101298.16
2022-11-03T10:10:32.175Z,101297.94
2022-11-03T10:14:33.710Z,101289.94
2022-11-03T10:18:36.647Z,101281.00
2022-11-03T10:22:40.983Z,101290.88
2022-11-03T10:26:46.160Z,101282.41
2022-11-03T10:31:19.923Z,101284.22
2022-11-03T10:35:35.049Z,101270.28
2022-11-03T10:39:37.297Z,101265.75
2022-11-03T10:43:40.039Z,101266.09
2022-11-03T10:47:41.586Z,101265.16
2022-11-03T10:51:46.819Z,101253.69
2022-11-03T10:55:48.293Z,101247.09
2022-11-03T10:59:53.030Z,101245.25
2022-11-03T11:03:55.334Z,101240.16
2022-11-03T11:07:59.310Z,101236.78
2022-11-03T11:12:06.082Z,101229.13
2022-11-03T11:16:46.356Z,101225.41
2022-11-03T11:20:48.147Z,101221.13
2022-11-03T11:24:49.607Z,101219.34
2022-11-03T11:29:09.483Z,101200.41
2022-11-03T11:33:21.483Z,101205.84
2022-11-03T11:37:22.857Z,101188.81
2022-11-03T11:42:01.832Z,101184.25
2022-11-03T11:46:33.031Z,101177.94
2022-11-03T11:50:35.982Z,101169.59
2022-11-03T11:54:37.485Z,101173.81
2022-11-03T11:58:55.794Z,101164.34
2022-11-03T12:02:59.685Z,101160.28
2022-11-03T12:07:01.183Z,101151.41
2022-11-03T12:11:05.326Z,101145.00
2022-11-03T12:15:27.248Z,101137.66
2022-11-03T12:19:35.441Z,101129.13
2022-11-03T12:23:42.911Z,101133.16
2022-11-03T12:27:44.422Z,101126.13
2022-11-03T12:31:47.244Z,101122.22
2022-11-03T12:35:48.658Z,101126.69
2022-11-03T12:39:50.094Z,101114.44
2022-11-03T12:43:53.392Z,101114.91
2022-11-03T12:47:55.012Z,101105.91
2022-11-03T12:51:56.466Z,101096.31
2022-11-03T12:55:57.966Z,101089.38
2022-11-03T12:59:59.372Z,101079.97
2022-11-03T13:04:00.931Z,101074.81
2022-11-03T13:08:02.803Z,101073.84
2022-11-03T13:12:23.187Z,101072.13
2022-11-03T13:16:24.950Z,101062.56
2022-11-03T13:20:26.387Z,101054.53
2022-11-03T13:24:27.927Z,101056.63
2022-11-03T13:28:29.336Z,101048.22
2022-11-03T13:32:30.899Z,101051.63
2022-11-03T13:36:32.448Z,101040.59
2022-11-03T14:06:30.707Z,101002.09
2022-11-03T14:10:32.167Z,100991.50
2022-11-03T14:14:33.689Z,100991.66
2022-11-03T14:18:35.068Z,101006.41
2022-11-03T14:22:36.581Z,100996.00
2022-11-03T14:26:42.703Z,100990.47
2022-11-03T14:30:45.751Z,100983.88
2022-11-03T14:34:48.129Z,100982.94
2022-11-03T14:38:50.172Z,100974.31
2022-11-03T14:42:51.684Z,100979.44
2022-11-03T14:46:53.099Z,100967.38
2022-11-03T14:50:55.493Z,100960.88
2022-11-03T14:55:22.012Z,100964.19
2022-11-03T14:59:24.002Z,100959.31
2022-11-03T15:03:25.494Z,100948.09
2022-11-03T15:07:26.930Z,100947.78
2022-11-03T15:11:28.453Z,100942.28
2022-11-03T15:15:29.915Z,100939.09
2022-11-03T15:19:31.326Z,100933.59
2022-11-03T15:27:54.448Z,100920.75
2022-11-03T15:31:55.865Z,100900.94
2022-11-03T15:35:57.412Z,100904.66
2022-11-03T15:39:59.927Z,100906.66
2022-11-03T15:44:04.230Z,100895.97
2022-11-03T15:48:05.849Z,100891.47
2022-11-03T15:52:09.588Z,100882.09
2022-11-03T15:56:11.184Z,100886.78
2022-11-03T16:00:13.035Z,100877.22
2022-11-03T16:04:16.168Z,100872.66
2022-11-03T16:08:17.612Z,100865.91
2022-11-03T16:12:19.082Z,100867.34
2022-11-03T16:51:46.462Z,100790.16
2022-11-03T16:55:49.435Z,100782.03
2022-11-03T16:59:51.634Z,100785.72
2022-11-03T17:03:54.012Z,100785.75
2022-11-03T17:07:55.404Z,100778.50
2022-11-03T17:11:56.845Z,100776.88
2022-11-03T17:15:58.345Z,100770.53
2022-11-03T17:19:59.794Z,100766.94
2022-11-03T17:24:01.367Z,100755.22
2022-11-03T17:28:04.140Z,100760.63
2022-11-03T17:32:10.666Z,100749.66
2022-11-03T17:36:12.189Z,100735.81
2022-11-03T17:40:18.613Z,100725.94
2022-11-03T17:44:20.074Z,100718.97
2022-11-03T17:48:23.132Z,100711.50
2022-11-03T17:52:28.651Z,100707.03
2022-11-03T17:56:31.261Z,100703.59
2022-11-03T18:00:33.773Z,100694.56
2022-11-03T18:04:35.208Z,100688.69
2022-11-03T18:08:36.600Z,100691.34
2022-11-03T18:13:01.189Z,100677.06
2022-11-03T18:17:02.733Z,100674.25
2022-11-03T18:21:04.895Z,100667.53
2022-11-03T18:25:15.341Z,100664.78
2022-11-03T18:29:16.822Z,100650.72
2022-11-03T18:33:29.390Z,100645.59
2022-11-03T18:37:32.642Z,100650.16
2022-11-03T18:41:38.982Z,100642.91
2022-11-03T18:45:40.634Z,100634.38
2022-11-03T18:49:42.150Z,100629.31
2022-11-03T18:53:44.087Z,100620.88
2022-11-03T18:57:45.830Z,100619.22
2022-11-03T19:01:47.535Z,100614.69
2022-11-03T19:05:51.655Z,100613.91
2022-11-03T19:09:53.319Z,100603.56
2022-11-03T19:13:54.962Z,100596.25
2022-11-03T19:17:57.740Z,100600.59
2022-11-03T19:21:59.151Z,100586.50
2022-11-03T19:26:00.707Z,100562.38
2022-11-03T19:30:04.216Z,100529.91
2022-11-03T19:34:11.245Z,100518.97
2022-11-03T19:38:15.302Z,100517.09
2022-11-03T19:42:28.538Z,100517.09
2022-11-03T19:46:30.123Z,100519.66
2022-11-03T19:50:33.154Z,100523.81
2022-11-03T19:54:34.592Z,100526.56
2022-11-03T19:58:36.020Z,100512.19
2022-11-03T20:02:37.511Z,100509.28
2022-11-03T20:06:40.924Z,100511.16
2022-11-03T20:10:44.083Z,100515.81
2022-11-03T20:14:45.690Z,100507.88
2022-11-03T20:18:48.765Z,100506.25
2022-11-03T20:22:55.337Z,100494.03
2022-11-03T20:26:56.921Z,100489.53
2022-11-03T20:31:00.927Z,100483.66
2022-11-03T20:35:02.441Z,100475.91
2022-11-03T20:39:04.390Z,100477.72
2022-11-03T20:43:07.466Z,100480.78
2022-11-03T20:47:12.723Z,100479.78
2022-11-03T20:51:15.909Z,100478.66
2022-11-03T20:55:26.478Z,100468.72
2022-11-03T20:59:30.152Z,100458.59
2022-11-03T21:04:00.856Z,100449.06
2022-11-03T21:07:55.632Z,100439.41
2022-11-03T21:11:57.095Z,100433.16
2022-11-03T21:16:24.665Z,100420.81
2022-11-03T21:20:26.349Z,100409.97
2022-11-03T21:24:27.853Z,100397.16
2022-11-03T21:28:29.292Z,100395.69
2022-11-03T21:32:30.724Z,100392.94
2022-11-03T21:36:32.141Z,100393.00
2022-11-03T21:40:33.717Z,100388.25
2022-11-03T21:44:36.202Z,100380.00
2022-11-03T21:48:57.635Z,100375.97
2022-11-03T21:52:59.174Z,100370.63
2022-11-03T21:57:00.582Z,100372.72
2022-11-03T22:01:04.898Z,100370.00
2022-11-03T22:05:10.769Z,100366.50
2022-11-03T22:09:12.625Z,100361.97
2022-11-03T22:13:14.083Z,100366.50
2022-11-03T22:17:17.383Z,100372.41
2022-11-03T22:21:37.510Z,100379.59
2022-11-03T22:26:14.331Z,100367.75
2022-11-03T22:30:34.378Z,100360.06
2022-11-03T22:34:54.369Z,100357.09
2022-11-03T22:39:14.881Z,100355.94
2022-11-03T22:43:35.082Z,100351.34
2022-11-03T22:47:36.439Z,100357.31
2022-11-03T22:51:37.827Z,100347.16
2022-11-03T22:55:39.259Z,100335.81
2022-11-03T22:59:41.074Z,100325.84
2022-11-03T23:03:45.148Z,100319.44
2022-11-03T23:07:46.556Z,100306.44
2022-11-03T23:11:48.197Z,100297.16
2022-11-03T23:15:49.606Z,100290.53
2022-11-03T23:20:10.059Z,100282.41
2022-11-03T23:24:30.641Z,100281.81
2022-11-03T23:28:32.055Z,100264.53
2022-11-03T23:32:33.482Z,100265.41
2022-11-03T23:36:35.000Z,100267.75
2022-11-03T23:40:36.438Z,100270.78
2022-11-03T23:44:56.590Z,100268.03
2022-11-03T23:48:58.729Z,100259.38
2022-11-03T23:53:00.174Z,100255.59
2022-11-03T23:57:20.570Z,100256.94
